NCAR-RAP Real-Time Weather Data

Output produced by METARs form (15 October 2019  00:02 UTC)
found at http://weather.rap.ucar.edu/surface/
 
KLGA 142351Z 25012KT 10SM CLR 21/03 A2995 RMK AO2 SLP143 T02110033 10239 20194 53022
KLGA 142251Z 26008KT 10SM CLR 21/04 A2993 RMK AO2 SLP134 T02110039
KLGA 142151Z 17008KT 10SM CLR 19/12 A2992 RMK AO2 SLP130 T01940122
KLGA 142051Z 27012KT 10SM CLR 23/02 A2989 RMK AO2 SLP122 T02330022 56012
KLGA 141951Z 24009KT 10SM CLR 23/07 A2989 RMK AO2 SLP123 T02330067
KLGA 141851Z 21009KT 10SM CLR 22/08 A2990 RMK AO2 SLP126 T02220078
KLGA 141751Z VRB05KT 10SM FEW035 FEW250 21/09 A2993 RMK AO2 SLP133 T02110089 10211 20156 58023
KLGA 141651Z VRB04KT 10SM FEW030 FEW250 20/10 A2995 RMK AO2 SLP142 T02000100
KLGA 141551Z 23006KT 10SM FEW019 SCT027 19/11 A2997 RMK AO2 SLP149 T01890106
KLGA 141451Z 27009KT 10SM FEW019 BKN027 18/11 A2999 RMK AO2 SLP156 T01780106 50000
KLGA 141351Z 27008KT 10SM SCT019 BKN027 17/11 A3001 RMK AO2 SLP160 T01670106
KLGA 141251Z 26004KT 10SM SCT013 BKN025 17/12 A3000 RMK AO2 SLP157 T01670122
KLGA 141151Z 00000KT 10SM BKN019 BKN028 16/12 A2999 RMK AO2 SLP156 T01560122 10161 20150 53013
KLGA 141051Z 17003KT 10SM BKN025 15/12 A2997 RMK AO2 SLP149 T01500117
KLGA 140951Z 16006KT 10SM BKN026 15/12 A2996 RMK AO2 SLP145 T01500122
KLGA 140915Z 14006KT 10SM SCT029 15/12 A2994 RMK AO2 T01500117
KLGA 140851Z 14004KT 10SM OVC029 16/12 A2995 RMK AO2 SLP143 T01560122 55013
KLGA 140832Z 13004KT 10SM FEW015 BKN029 15/12 A2995 RMK AO2 T01500122
KLGA 140751Z 18004KT 10SM BKN033 16/12 A2995 RMK AO2 SLP143 T01560122
KLGA 140710Z 15006KT 10SM SCT026 OVC036 16/12 A2996 RMK AO2 T01560122
KLGA 140651Z 15005KT 10SM BKN027 OVC040 16/12 A2997 RMK AO2 SLP148 T01610117
KLGA 140613Z 16007KT 10SM BKN029 OVC044 16/12 A2998 RMK AO2 T01610117
KLGA 140551Z 17005KT 10SM OVC030 17/12 A2999 RMK AO2 RAB40E50 SLP156 P0000 60000 T01670117 10167 20161 58011
KLGA 140542Z 17005KT 10SM -RA OVC030 17/12 A2999 RMK AO2 RAB40 P0000 T01670117
KLGA 140527Z 18005KT 10SM OVC029 17/12 A3000 RMK AO2 T01670117
KLGA 140451Z 18004KT 10SM OVC031 17/12 A3000 RMK AO2 SLP159 T01670117 401940133
KLGA 140351Z 22005KT 10SM BKN037 OVC055 17/12 A3002 RMK AO2 SLP164 T01670117
KLGA 140251Z 18006KT 10SM OVC038 17/11 A3003 RMK AO2 SLP167 T01670111 58006
KLGA 140151Z 19005KT 10SM OVC048 17/11 A3004 RMK AO2 SLP171 T01670106
KLGA 140051Z 20008KT 10SM FEW075 SCT110 BKN250 16/10 A3004 RMK AO2 SLP171 T01610100
KLGA 132351Z 18008KT 10SM FEW055 BKN100 BKN230 16/08 A3004 RMK AO2 SLP174 T01610083 10194 20161 53001
KLGA 132251Z 18008KT 10SM FEW055 BKN240 16/07 A3005 RMK AO2 SLP174 T01610072
KLGA 132151Z 18008KT 10SM FEW085 BKN250 17/07 A3004 RMK AO2 SLP172 T01720072
KLGA 132051Z 09006KT 10SM BKN085 BKN250 19/02 A3004 RMK AO2 SLP172 T01890022 56013
KLGA 131951Z 06007KT 10SM SCT100 BKN250 19/02 A3005 RMK AO2 SLP176 T01940017
KLGA 131851Z 07005KT 10SM BKN100 BKN250 18/04 A3006 RMK AO2 SLP180 T01830039
KLGA 131751Z 36003KT 10SM FEW030 SCT085 BKN190 BKN250 17/04 A3008 RMK AO2 SLP185 T01720044 10178 20133 56015
KLGA 131651Z 05004KT 10SM FEW040 SCT090 BKN190 BKN250 16/06 A3009 RMK AO2 SLP187 T01610056
KLGA 131551Z VRB04KT 10SM FEW090 BKN170 BKN250 16/06 A3011 RMK AO2 SLP197 T01610056
KLGA 131451Z 36004KT 10SM FEW031 FEW045 SCT090 BKN170 BKN250 16/06 A3012 RMK AO2 SLP200 T01560056 51008
KLGA 131351Z 03006KT 10SM FEW030 FEW038 SCT090 BKN170 BKN250 15/07 A3012 RMK AO2 SLP199 T01500067
KLGA 131251Z 01008KT 10SM FEW018 SCT040 SCT090 BKN170 BKN250 14/07 A3012 RMK AO2 SLP198 T01390067
KLGA 131151Z 02007KT 10SM SCT020 SCT045 SCT090 BKN190 BKN250 14/09 A3010 RMK AO2 SLP192 T01390089 10161 20133 53024
KLGA 131051Z 35004KT 10SM FEW020 FEW048 SCT090 SCT250 14/09 A3007 RMK AO2 SLP182 T01390089
KLGA 130951Z 31006KT 10SM FEW050 FEW250 14/09 A3005 RMK AO2 SLP175 T01390089
KLGA 130851Z 31008KT 10SM CLR 15/09 A3003 RMK AO2 SLP167 T01500094 53012
KLGA 130751Z 32009KT 10SM CLR 15/10 A3000 RMK AO2 SLP160 T01500100
KLGA 130651Z 32012KT 10SM CLR 16/09 A2999 RMK AO2 SLP156 T01560094
KLGA 130551Z 31011KT 10SM CLR 16/10 A2999 RMK AO2 SLP155 T01610100 10194 20161 53005
KLGA 130451Z 30014KT 10SM SCT120 17/09 A2998 RMK AO2 SLP152 T01670094 402060133
KLGA 130351Z 29011KT 10SM SCT120 17/09 A2997 RMK AO2 SLP150 T01720094
KLGA 130251Z 29010KT 10SM SCT120 BKN250 18/09 A2998 RMK AO2 SLP151 T01780094 51010
KLGA 130151Z 28005KT 10SM SCT120 BKN250 18/09 A2997 RMK AO2 SLP149 T01780094
KLGA 130051Z 26006KT 10SM SCT150 SCT250 19/09 A2996 RMK AO2 SLP146 T01890089